Time;durP1;ratioP1;P1;durP2;ratioP2;P2;SDS_P1;SDS_P2;PMS_P1;PMS_P2;Temp;Humidity;BMP_temperature;BMP_pressure;BME280_temperature;BME280_humidity;BME280_pressure;Samples;Min_cycle;Max_cycle;Signal;HPM_P1;HPM_P2
2021/04/02 00:00:35;;;;;;;10.88;6.32;;;10.40;99.90;;;10.65;61.93;102554.22;5075558;28;20048;-71
2021/04/02 00:03:11;;;;;;;12.05;6.35;;;10.40;99.90;;;10.58;61.83;102549.66;5075430;28;20045;-71
2021/04/02 00:05:38;;;;;;;11.10;6.30;;;10.30;99.90;;;10.50;62.12;102544.19;5075774;28;20048;-72
2021/04/02 00:08:06;;;;;;;10.32;6.75;;;10.20;99.90;;;10.49;62.22;102549.47;5074254;28;20036;-72
2021/04/02 00:10:44;;;;;;;10.18;6.22;;;10.20;99.90;;;10.31;62.51;102554.31;5075649;28;20045;-72
2021/04/02 00:13:13;;;;;;;15.73;7.22;;;10.10;99.90;;;10.41;62.32;102545.75;5073971;28;20483;-72
2021/04/02 00:15:40;;;;;;;12.20;6.65;;;10.10;99.90;;;10.35;62.26;102533.28;5075228;28;20094;-71
2021/04/02 00:18:09;;;;;;;10.50;5.95;;;10.10;99.90;;;10.33;62.42;102532.34;5075266;28;20102;-72
2021/04/02 00:20:37;;;;;;;10.40;6.05;;;10.10;99.90;;;10.18;62.90;102531.09;5075372;28;20406;-72
2021/04/02 00:23:06;;;;;;;15.30;6.18;;;10.00;99.90;;;10.32;62.34;102546.41;5075143;28;20074;-72
2021/04/02 00:25:36;;;;;;;11.23;6.45;;;10.00;99.90;;;10.36;62.54;102548.28;5073833;28;20044;-71
2021/04/02 00:28:04;;;;;;;10.35;5.95;;;10.10;99.90;;;10.34;62.50;102549.97;5075107;28;20475;-72
2021/04/02 00:30:37;;;;;;;13.75;6.00;;;10.00;99.90;;;9.64;62.93;102431.06;5075279;28;20132;-71
2021/04/02 00:33:05;;;;;;;10.88;6.18;;;10.00;99.90;;;10.33;62.75;102539.38;5073315;28;20053;-72
2021/04/02 00:35:34;;;;;;;8.32;5.70;;;10.00;99.90;;;10.25;62.83;102547.13;5073887;28;20510;-72
2021/04/02 00:38:02;;;;;;;13.60;6.60;;;10.00;99.90;;;10.28;62.79;102547.19;5074916;28;20497;-72
2021/04/02 00:40:35;;;;;;;14.70;6.47;;;10.00;99.90;;;10.28;62.61;102546.31;5075102;28;20048;-71
2021/04/02 00:43:06;;;;;;;10.30;6.00;;;10.00;99.90;;;10.43;62.79;102547.53;5074781;28;20489;-72
2021/04/02 00:45:33;;;;;;;13.82;6.90;;;10.10;99.90;;;10.41;62.25;102545.75;5074909;28;20044;-72
2021/04/02 00:48:02;;;;;;;9.35;5.95;;;10.10;99.90;;;10.23;62.33;102513.56;5074793;28;20543;-72
2021/04/02 00:50:38;;;;;;;10.70;6.25;;;10.10;99.90;;;10.38;62.23;102548.28;5073272;28;20045;-72
2021/04/02 00:53:07;;;;;;;11.32;5.90;;;10.10;99.90;;;10.33;62.79;102545.56;5074815;28;20048;-72
2021/04/02 00:55:35;;;;;;;11.20;6.20;;;10.00;99.90;;;10.37;62.17;102551.81;5074747;28;20043;-72
2021/04/02 00:58:05;;;;;;;11.60;6.22;;;10.10;99.90;;;10.33;62.46;102549.94;5089934;28;20048;-72
2021/04/02 01:00:35;;;;;;;11.48;6.13;;;10.10;99.90;;;10.33;62.69;102542.91;5073196;28;20452;-72
2021/04/02 01:03:05;;;;;;;11.70;5.93;;;10.00;99.90;;;10.29;62.41;102543.72;5074394;28;20090;-72
2021/04/02 01:05:37;;;;;;;9.98;5.85;;;10.00;99.90;;;10.39;62.21;102539.53;5090083;28;20044;-72
2021/04/02 01:08:09;;;;;;;15.02;6.88;;;10.10;99.90;;;10.29;62.41;102540.16;5074489;28;20052;-72
2021/04/02 01:10:39;;;;;;;6.72;5.40;;;10.00;99.90;;;10.22;62.79;102527.66;5073212;28;20063;-72
2021/04/02 01:13:11;;;;;;;12.82;5.80;;;9.90;99.90;;;10.24;62.87;102536.53;5073046;28;20059;-72
2021/04/02 01:15:42;;;;;;;;;;;9.90;99.90;;;10.20;63.25;102537.31;5073322;28;20056;-71
2021/04/02 01:18:16;;;;;;;10.27;5.65;;;9.90;99.90;;;10.18;63.11;102531.94;5072995;28;19931;-72
2021/04/02 01:20:48;;;;;;;13.35;5.68;;;9.90;99.90;;;10.25;62.92;102539.19;5074134;28;20478;-72
2021/04/02 01:23:20;;;;;;;12.88;6.07;;;10.00;99.90;;;10.18;62.72;102545.19;5072915;28;20068;-72
2021/04/02 01:25:55;;;;;;;13.40;6.20;;;9.90;99.90;;;10.16;63.36;102553.94;5072799;28;20052;-72
2021/04/02 01:29:15;;;;;;;12.95;5.82;;;9.90;99.90;;;10.06;63.35;102536.03;5074069;28;20533;-72
2021/04/02 01:31:48;;;;;;;13.50;6.32;;;9.80;99.90;;;10.01;63.48;102543.84;5073989;28;20049;-72
2021/04/02 01:34:22;;;;;;;12.00;6.05;;;9.80;99.90;;;9.90;63.49;102555.91;5074168;28;20044;-71
2021/04/02 01:36:53;;;;;;;11.05;5.88;;;9.80;99.90;;;9.94;63.83;102544.56;5089354;28;20398;-72
2021/04/02 01:39:23;;;;;;;10.55;6.32;;;9.70;99.90;;;9.89;63.73;102540.91;5073912;28;20043;-71
2021/04/02 01:41:56;;;;;;;11.38;6.10;;;9.70;99.90;;;9.87;63.96;102546.16;5072433;28;20102;-72
2021/04/02 01:44:25;;;;;;;11.75;5.57;;;9.60;99.90;;;9.95;64.33;102543.69;5088426;28;20060;-71
2021/04/02 01:46:53;;;;;;;9.57;5.57;;;9.60;99.90;;;10.00;64.17;102550.00;5073642;28;20117;-72
2021/04/02 01:49:23;;;;;;;11.75;5.75;;;9.70;99.90;;;10.00;64.11;102542.97;5071987;28;20052;-71
2021/04/02 01:51:53;;;;;;;12.52;6.30;;;9.70;99.90;;;9.76;64.13;102509.72;5089232;28;20055;-71
2021/04/02 01:54:22;;;;;;;13.20;5.60;;;9.70;99.90;;;9.95;64.42;102546.34;5073895;28;20398;-72
2021/04/02 01:56:53;;;;;;;10.68;5.80;;;9.60;99.90;;;9.98;64.18;102549.06;5072236;28;20117;-71
2021/04/02 01:59:24;;;;;;;11.98;6.20;;;9.70;99.90;;;10.01;63.75;102549.13;5072287;28;20063;-72
2021/04/02 02:01:53;;;;;;;14.68;6.43;;;9.80;99.90;;;10.03;63.90;102553.59;5073217;28;20044;-71
2021/04/02 02:04:23;;;;;;;9.63;5.90;;;9.70;99.90;;;10.06;64.00;102557.19;5071929;28;20041;-72
2021/04/02 02:06:55;;;;;;;14.65;6.60;;;9.70;99.90;;;10.08;63.85;102551.09;5072374;28;20056;-72
2021/04/02 02:09:32;;;;;;;10.07;5.90;;;9.80;99.90;;;10.03;64.38;102556.25;5088948;28;20078;-72
2021/04/02 02:12:06;;;;;;;14.90;6.65;;;9.80;99.90;;;10.11;64.44;102559.13;5088888;28;20044;-72
2021/04/02 02:14:45;;;;;;;13.05;6.32;;;9.70;99.90;;;9.92;64.40;102564.78;5072064;28;20055;-71
2021/04/02 02:17:22;;;;;;;14.52;7.72;;;9.60;99.90;;;9.95;64.97;102555.16;5071940;28;20505;-70
2021/04/02 02:19:51;;;;;;;17.10;8.10;;;9.60;99.90;;;9.88;65.19;102553.22;5072953;28;20060;-72
2021/04/02 02:22:21;;;;;;;12.40;7.35;;;9.60;99.90;;;9.96;64.95;102553.44;5072862;28;20063;-71
2021/04/02 02:24:58;;;;;;;16.50;8.07;;;9.60;99.90;;;9.85;65.34;102553.13;5071852;28;20052;-72
2021/04/02 02:27:25;;;;;;;12.95;7.60;;;9.60;99.90;;;9.92;64.87;102554.19;5071486;28;20048;-72
2021/04/02 02:29:54;;;;;;;19.45;8.82;;;9.60;99.90;;;9.79;65.48;102552.09;5072988;28;20036;-72
2021/04/02 02:32:22;;;;;;;17.58;8.45;;;9.50;99.90;;;9.85;65.01;102547.84;5071576;28;20528;-72
2021/04/02 02:34:50;;;;;;;19.73;8.77;;;9.60;99.90;;;9.86;65.21;102556.69;5073016;28;20071;-72
2021/04/02 02:37:18;;;;;;;19.63;8.30;;;9.60;99.90;;;9.93;65.01;102550.69;5071616;28;20481;-72
2021/04/02 02:39:52;;;;;;;23.15;9.15;;;9.60;99.90;;;9.88;65.34;102561.16;5071662;28;20040;-72
2021/04/02 02:42:19;;;;;;;21.15;8.93;;;9.60;99.90;;;9.84;64.75;102551.38;5072770;28;20036;-72
2021/04/02 02:44:49;;;;;;;16.52;8.10;;;9.50;99.90;;;9.84;65.60;102545.19;5071488;28;20041;-72
2021/04/02 02:47:17;;;;;;;15.88;7.60;;;9.50;99.90;;;9.83;65.03;102544.28;5071400;28;20060;-71
2021/04/02 02:49:53;;;;;;;22.80;8.60;;;9.60;99.90;;;9.86;64.85;102552.31;5071590;28;20052;-71
2021/04/02 02:52:23;;;;;;;22.15;8.70;;;9.50;99.90;;;9.86;64.79;102548.75;5071534;28;20053;-72
2021/04/02 02:54:52;;;;;;;16.25;8.38;;;9.60;99.90;;;9.94;65.22;102547.19;5071147;28;20440;-71
2021/04/02 02:57:21;;;;;;;18.67;8.55;;;9.60;99.90;;;9.87;65.25;102540.84;5071277;28;20071;-72
2021/04/02 02:59:54;;;;;;;22.23;8.48;;;9.60;99.90;;;9.94;64.71;102540.19;5071450;28;20393;-71
2021/04/02 03:02:23;;;;;;;18.65;7.82;;;9.60;99.90;;;9.88;64.50;102541.75;5087946;28;20075;-72
2021/04/02 03:04:52;;;;;;;20.23;8.88;;;9.60;99.90;;;9.83;64.49;102528.41;5071452;28;20045;-71
2021/04/02 03:07:21;;;;;;;15.17;8.20;;;9.60;99.90;;;9.81;64.55;102545.13;5071426;28;20134;-72
2021/04/02 03:09:53;;;;;;;17.98;8.10;;;9.60;99.90;;;9.74;64.93;102522.91;5088290;28;20383;-72
2021/04/02 03:12:23;;;;;;;17.95;7.20;;;9.50;99.90;;;9.84;64.83;102545.19;5071211;28;20048;-72
2021/04/02 03:14:53;;;;;;;18.17;8.07;;;9.60;99.90;;;9.63;64.98;102511.19;5072656;28;20041;-71
2021/04/02 03:17:23;;;;;;;16.40;7.95;;;9.50;99.90;;;9.81;65.09;102539.84;5071360;28;20141;-72
2021/04/02 03:19:53;;;;;;;22.13;6.85;;;9.50;99.90;;;9.83;65.02;102536.34;5071023;28;20060;-72
2021/04/02 03:22:28;;;;;;;17.15;7.15;;;9.50;99.90;;;9.75;65.21;102535.28;5071054;28;20515;-70
2021/04/02 03:25:18;;;;;;;16.05;7.85;;;9.50;99.90;;;9.84;64.82;102537.25;5087869;28;20052;-69
2021/04/02 03:27:52;;;;;;;22.90;7.85;;;9.50;99.90;;;9.68;64.80;102538.59;5072438;28;20063;-69
2021/04/02 03:30:33;;;;;;;18.85;7.38;;;9.50;99.90;;;9.64;65.42;102531.44;5071281;28;20131;-70
2021/04/02 03:33:12;;;;;;;19.80;7.40;;;9.40;99.90;;;9.65;65.45;102542.91;5070971;28;20060;-69
2021/04/02 03:35:45;;;;;;;17.45;7.03;;;9.40;99.90;;;9.67;65.85;102539.47;5070990;28;20079;-69
2021/04/02 03:38:15;;;;;;;19.42;7.50;;;9.40;99.90;;;9.77;65.53;102543.25;5087994;28;20079;-69
2021/04/02 03:40:46;;;;;;;19.85;7.45;;;9.50;99.90;;;9.76;65.24;102533.50;5071013;28;20110;-69
2021/04/02 03:43:15;;;;;;;19.85;7.85;;;9.50;99.90;;;9.79;64.93;102536.25;5087700;28;20060;-69
2021/04/02 03:45:48;;;;;;;21.55;8.63;;;9.50;99.90;;;9.83;65.09;102544.28;5070841;28;20040;-69
2021/04/02 03:48:22;;;;;;;22.55;7.38;;;9.50;99.90;;;9.81;65.21;102540.69;5071061;28;20071;-68
2021/04/02 03:50:56;;;;;;;18.73;8.10;;;9.50;99.90;;;9.78;65.31;102543.28;5072243;28;20478;-69
2021/04/02 03:53:29;;;;;;;22.27;7.68;;;9.50;99.90;;;9.78;65.18;102540.63;5071007;28;20094;-69
2021/04/02 03:56:04;;;;;;;19.65;8.13;;;9.50;99.90;;;9.80;65.25;102527.44;5087803;28;20143;-69
2021/04/02 03:58:41;;;;;;;19.15;7.63;;;9.50;99.90;;;9.77;64.93;102536.22;5071892;28;20106;-69
2021/04/02 04:01:17;;;;;;;23.20;8.43;;;9.50;99.90;;;9.93;64.92;102538.38;5070883;28;20525;-69
2021/04/02 04:03:50;;;;;;;28.30;8.10;;;9.60;99.90;;;9.87;64.35;102530.28;5070815;28;20458;-69
2021/04/02 04:06:22;;;;;;;17.92;6.97;;;9.60;99.90;;;9.82;64.51;102524.00;5070934;28;20421;-69
2021/04/02 04:08:57;;;;;;;18.08;7.40;;;9.60;99.90;;;9.88;64.52;102529.44;5074311;28;20146;-69
2021/04/02 04:11:27;;;;;;;22.33;7.03;;;9.60;99.90;;;9.69;64.03;102508.72;5090991;28;20053;-69
2021/04/02 04:13:57;;;;;;;22.45;8.52;;;9.60;99.90;;;9.87;64.01;102540.84;5074562;28;20079;-69
2021/04/02 04:16:26;;;;;;;26.90;8.73;;;9.60;99.90;;;9.91;64.25;102542.72;5074154;28;20143;-69
2021/04/02 04:19:02;;;;;;;22.48;8.00;;;9.60;99.90;;;9.26;63.66;102425.66;5073776;28;20140;-69
2021/04/02 04:21:40;;;;;;;20.08;7.05;;;9.70;99.90;;;9.91;63.40;102557.72;5090857;28;20052;-69
2021/04/02 04:24:15;;;;;;;18.88;7.00;;;9.60;99.90;;;9.89;63.88;102539.16;5075136;28;20048;-69
2021/04/02 04:26:46;;;;;;;22.52;7.75;;;9.60;99.90;;;9.82;63.66;102550.44;5075189;28;20040;-69
2021/04/02 04:29:17;;;;;;;19.52;7.20;;;9.60;99.90;;;9.81;63.64;102551.28;5075177;28;20047;-69
2021/04/02 04:31:45;;;;;;;23.02;7.75;;;9.60;99.90;;;9.81;63.73;102539.84;5075093;28;20040;-69
2021/04/02 04:34:15;;;;;;;18.17;6.90;;;9.50;99.90;;;9.17;63.57;102441.28;5075208;28;20048;-69
2021/04/02 04:36:46;;;;;;;15.15;6.93;;;9.50;99.90;;;9.81;63.42;102543.34;5075573;28;20048;-69
2021/04/02 04:39:15;;;;;;;23.23;7.32;;;9.50;99.90;;;9.80;62.72;102548.59;5075019;28;20040;-69
2021/04/02 04:41:44;;;;;;;15.15;6.18;;;9.50;99.90;;;9.82;62.87;102547.78;5075063;28;20496;-69
2021/04/02 04:44:13;;;;;;;15.52;6.35;;;9.50;99.90;;;9.83;62.68;102546.91;5074592;28;20486;-69
2021/04/02 04:46:41;;;;;;;21.55;7.00;;;9.50;99.90;;;9.79;62.82;102550.34;5075042;28;20063;-69
2021/04/02 04:49:08;;;;;;;18.58;7.25;;;9.50;99.90;;;9.81;62.53;102553.91;5074991;28;20437;-69
2021/04/02 04:51:40;;;;;;;18.77;7.57;;;9.50;99.90;;;9.58;62.47;102546.28;5074618;28;20052;-70
2021/04/02 04:54:08;;;;;;;20.88;6.50;;;9.30;99.90;;;9.49;62.74;102515.22;5074751;28;20059;-69
2021/04/02 04:56:42;;;;;;;18.25;7.15;;;9.40;99.90;;;9.69;62.66;102550.97;5074548;28;20494;-70
2021/04/02 04:59:11;;;;;;;22.48;7.38;;;9.40;99.90;;;9.72;62.19;102556.31;5074746;28;20063;-69
2021/04/02 05:01:42;;;;;;;14.60;6.90;;;9.50;99.90;;;9.78;62.48;102552.94;5074786;28;20052;-69
2021/04/02 05:04:11;;;;;;;18.80;6.60;;;9.50;99.90;;;9.67;62.43;102552.69;5073214;28;20052;-69
2021/04/02 05:06:42;;;;;;;17.05;6.80;;;9.40;99.90;;;9.54;62.26;102560.25;5074570;28;20050;-69
2021/04/02 05:09:10;;;;;;;15.07;7.18;;;9.30;99.90;;;9.54;62.39;102566.41;5073310;28;20520;-69
2021/04/02 05:11:39;;;;;;;15.32;6.57;;;9.30;99.90;;;9.51;62.60;102570.72;5074195;28;20080;-70
2021/04/02 05:14:13;;;;;;;18.70;6.55;;;9.20;99.90;;;9.54;62.80;102569.03;5074416;28;20094;-69
2021/04/02 05:16:43;;;;;;;15.15;6.07;;;9.30;99.90;;;9.49;62.71;102565.41;5074349;28;20048;-70
2021/04/02 05:19:11;;;;;;;17.30;7.00;;;9.20;99.90;;;9.43;62.50;102562.59;5074445;28;20056;-69
2021/04/02 05:21:42;;;;;;;17.48;6.40;;;9.20;99.90;;;9.46;62.84;102567.06;5074101;28;20111;-69
2021/04/02 05:24:11;;;;;;;13.90;6.85;;;9.20;99.90;;;9.52;62.43;102561.94;5074451;28;20386;-69
2021/04/02 05:26:39;;;;;;;16.00;6.75;;;9.20;99.90;;;9.53;61.93;102561.97;5073895;28;20567;-69
2021/04/02 05:29:08;;;;;;;17.10;7.05;;;9.30;99.90;;;9.43;62.40;102567.88;5073978;28;20040;-69
2021/04/02 05:31:37;;;;;;;15.27;6.95;;;9.20;99.90;;;9.53;62.15;102559.34;5074007;28;20099;-69
2021/04/02 05:34:17;;;;;;;17.40;7.28;;;9.20;99.90;;;9.54;61.86;102571.69;5073665;28;20049;-69
2021/04/02 05:36:45;;;;;;;19.42;7.63;;;9.30;99.90;;;9.42;61.96;102565.19;5073756;28;20361;-70
2021/04/02 05:39:12;;;;;;;15.88;7.25;;;9.20;99.90;;;9.51;62.32;102566.31;5074270;28;20048;-68
2021/04/02 05:41:50;;;;;;;15.45;7.10;;;9.20;99.90;;;9.49;62.17;102569.78;5073719;28;20101;-69
2021/04/02 05:44:23;;;;;;;16.20;6.70;;;9.20;99.90;;;9.46;61.87;102567.97;5072369;28;20532;-69
2021/04/02 05:46:51;;;;;;;16.35;6.85;;;9.30;99.90;;;9.50;62.07;102564.56;5073557;28;20044;-69
2021/04/02 05:49:21;;;;;;;22.75;7.88;;;9.30;99.90;;;9.50;61.26;102575.13;5072326;28;20557;-69
2021/04/02 05:51:50;;;;;;;15.68;6.50;;;9.20;99.90;;;9.66;61.37;102573.75;5073443;28;20048;-69
2021/04/02 05:54:28;;;;;;;20.10;7.35;;;9.30;99.90;;;9.66;60.82;102572.03;5073524;28;20044;-70
2021/04/02 05:56:56;;;;;;;13.32;6.07;;;9.40;99.90;;;9.62;60.50;102545.50;5073375;28;20040;-70
2021/04/02 05:59:24;;;;;;;14.05;6.80;;;9.50;99.90;;;9.86;60.27;102572.53;5072131;28;20044;-68
2021/04/02 06:01:52;;;;;;;15.70;6.88;;;9.60;99.90;;;9.89;60.25;102576.16;5073368;28;20149;-70
2021/04/02 06:04:20;;;;;;;13.82;6.68;;;9.60;99.90;;;9.59;59.90;102517.25;5073105;28;20498;-70
2021/04/02 06:06:49;;;;;;;16.70;6.93;;;9.60;99.90;;;9.89;59.65;102573.50;5089034;28;20408;-70
2021/04/02 06:09:16;;;;;;;17.67;6.63;;;9.60;99.90;;;9.98;59.41;102573.75;5073258;28;20047;-69
2021/04/02 06:11:44;;;;;;;20.13;6.53;;;9.70;99.90;;;9.94;59.37;102573.63;5073109;28;20045;-71
2021/04/02 06:14:11;;;;;;;14.23;6.63;;;9.70;99.90;;;9.99;59.60;102577.28;5072979;28;20420;-70
2021/04/02 06:16:39;;;;;;;15.80;6.32;;;9.70;99.90;;;10.08;59.97;102577.53;5071978;28;20037;-70
2021/04/02 06:19:09;;;;;;;19.80;7.03;;;9.80;99.90;;;10.13;59.47;102578.56;5072799;28;20057;-67
2021/04/02 06:21:49;;;;;;;15.00;6.57;;;9.80;99.90;;;10.25;59.00;102581.50;5071842;28;20048;-69
2021/04/02 06:24:35;;;;;;;19.08;7.28;;;10.00;99.90;;;10.28;59.07;102578.94;5073120;28;20048;-69
2021/04/02 06:27:06;;;;;;;15.23;6.32;;;10.00;99.90;;;10.34;58.80;102583.47;5072938;28;20387;-68
2021/04/02 06:29:39;;;;;;;14.80;6.55;;;10.00;99.90;;;10.41;58.39;102588.97;5072786;28;20059;-68
2021/04/02 06:32:09;;;;;;;12.40;6.10;;;10.10;99.90;;;10.56;58.44;102591.06;5072896;28;20052;-69
2021/04/02 06:34:46;;;;;;;19.30;6.00;;;10.20;99.90;;;10.42;58.15;102577.50;5072775;28;20047;-70
2021/04/02 06:37:16;;;;;;;17.13;6.35;;;10.30;99.90;;;10.52;58.18;102587.47;5072756;28;20163;-69
2021/04/02 06:39:50;;;;;;;17.27;6.57;;;10.30;99.90;;;10.48;58.16;102595.28;5073005;28;20036;-68
2021/04/02 06:42:28;;;;;;;17.63;6.43;;;10.20;99.90;;;10.20;57.80;102577.84;5072510;28;20052;-68
2021/04/02 06:45:00;;;;;;;15.18;5.97;;;10.10;99.90;;;10.16;57.69;102569.81;5072387;28;20132;-68
2021/04/02 06:47:35;;;;;;;15.35;6.32;;;10.00;99.90;;;10.27;57.63;102597.41;5072318;28;20110;-68
2021/04/02 06:50:16;;;;;;;15.82;6.13;;;10.00;99.90;;;10.27;56.99;102600.97;5072695;28;20071;-70
2021/04/02 06:52:49;;;;;;;13.50;6.00;;;10.00;99.90;;;10.18;57.09;102589.25;5072338;28;20063;-70
2021/04/02 06:55:17;;;;;;;12.80;6.75;;;10.00;99.90;;;10.18;57.08;102594.56;5072566;28;20119;-70
2021/04/02 06:57:50;;;;;;;16.73;6.25;;;10.00;99.90;;;10.04;57.53;102608.25;5072288;28;20044;-70
2021/04/02 07:00:20;;;;;;;12.55;6.03;;;9.80;99.90;;;10.14;57.44;102611.19;5072470;28;20045;-70
2021/04/02 07:02:50;;;;;;;19.48;6.88;;;9.90;99.90;;;10.15;57.43;102611.22;5072702;28;20490;-70
2021/04/02 07:05:20;;;;;;;12.73;7.03;;;9.90;99.90;;;10.06;57.68;102604.78;5072368;28;20040;-70
2021/04/02 07:07:56;;;;;;;12.52;6.88;;;9.80;99.90;;;9.82;57.47;102584.78;5072449;28;20127;-70
2021/04/02 07:10:25;;;;;;;16.02;6.32;;;9.80;99.90;;;9.99;57.66;102612.56;5072348;28;20496;-70
2021/04/02 07:12:59;;;;;;;13.77;6.25;;;9.80;99.90;;;9.91;58.04;102613.22;5072533;28;20463;-70
2021/04/02 07:15:27;;;;;;;19.77;7.25;;;9.70;99.90;;;9.86;58.20;102622.75;5072429;28;20052;-69
2021/04/02 07:17:55;;;;;;;18.17;6.53;;;9.60;99.90;;;9.99;58.59;102627.50;5072344;28;20090;-70
2021/04/02 07:20:22;;;;;;;16.52;8.00;;;9.70;99.90;;;10.08;57.99;102625.13;5032310;28;20399;-72
2021/04/02 07:22:52;;;;;;;15.55;7.18;;;9.80;99.90;;;9.90;57.89;102601.75;5032144;28;20442;-68
2021/04/02 07:25:21;;;;;;;11.38;7.20;;;9.80;99.90;;;10.10;57.80;102623.44;5031202;28;20046;-72
2021/04/02 07:27:51;;;;;;;18.00;8.13;;;9.90;99.90;;;10.09;57.68;102628.63;5032388;28;20044;-70
2021/04/02 07:30:21;;;;;;;16.23;7.18;;;9.90;99.90;;;9.98;57.86;102636.31;5032192;28;20041;-68
2021/04/02 07:32:50;;;;;;;16.45;6.90;;;9.80;99.90;;;10.02;57.35;102640.81;5032084;28;20148;-68
2021/04/02 07:35:21;;;;;;;13.38;7.22;;;9.80;99.90;;;10.07;57.66;102638.28;5032259;28;20052;-66
2021/04/02 07:37:51;;;;;;;;;;;9.90;99.90;;;10.07;57.81;102646.22;5032516;28;20091;-67
2021/04/02 07:40:23;;;;;;;21.50;7.55;;;9.90;99.90;;;9.62;57.33;102564.00;5032236;28;19929;-67
2021/04/02 07:42:54;;;;;;;15.05;7.32;;;9.90;99.90;;;9.92;57.45;102646.72;5034401;28;20049;-65
2021/04/02 07:45:24;;;;;;;;;;;9.70;99.90;;;9.99;56.89;102651.28;5036388;28;20041;-68
2021/04/02 07:47:57;;;;;;;21.77;8.07;;;9.80;99.90;;;9.89;57.12;102660.72;5035806;28;19921;-69
2021/04/02 07:50:39;;;;;;;19.92;8.20;;;9.70;99.90;;;9.79;57.47;102658.69;5036059;28;20041;-68
2021/04/02 07:53:15;;;;;;;18.45;8.23;;;9.60;99.90;;;9.74;57.19;102660.31;5035953;28;20041;-69
2021/04/02 07:55:54;;;;;;;12.32;8.15;;;9.60;99.90;;;9.73;56.82;102663.84;5035992;28;20414;-68
2021/04/02 07:58:27;;;;;;;13.52;8.15;;;9.50;99.90;;;9.58;56.87;102663.38;5035817;28;20033;-69
2021/04/02 08:00:57;;;;;;;19.98;7.90;;;9.40;99.90;;;9.61;56.83;102660.84;5035972;28;20075;-69
2021/04/02 08:03:26;;;;;;;17.70;7.67;;;9.40;99.90;;;9.72;57.58;102656.75;5035584;28;20063;-68
2021/04/02 08:06:04;;;;;;;22.60;8.63;;;9.50;99.90;;;9.71;57.42;102656.69;5035680;28;20292;-69
2021/04/02 08:08:47;;;;;;;17.60;8.52;;;9.50;99.90;;;9.69;56.83;102655.75;5050684;28;20449;-69
2021/04/02 08:11:19;;;;;;;18.55;8.82;;;9.50;99.90;;;9.73;56.43;102658.53;5035817;28;20049;-69
2021/04/02 08:13:55;;;;;;;18.23;7.82;;;9.50;99.90;;;9.69;56.58;102656.66;5035438;28;20457;-69
2021/04/02 08:16:46;;;;;;;11.73;8.07;;;9.50;99.90;;;9.82;56.77;102657.88;5034390;28;20569;-69
2021/04/02 08:19:25;;;;;;;21.10;7.60;;;9.60;99.90;;;9.78;56.15;102661.28;5056320;28;20080;-69
2021/04/02 08:21:56;;;;;;;15.07;8.18;;;9.60;99.90;;;9.88;56.65;102661.59;5075229;28;20041;-69
2021/04/02 08:24:28;;;;;;;18.98;7.82;;;9.70;99.90;;;9.92;56.05;102663.47;5075201;28;20482;-69
2021/04/02 08:26:57;;;;;;;18.55;8.48;;;9.70;99.90;;;9.98;56.61;102671.56;5075147;28;20051;-69
2021/04/02 08:29:28;;;;;;;14.88;8.57;;;9.80;99.90;;;10.03;56.24;102669.03;5075078;28;20071;-69
2021/04/02 08:31:59;;;;;;;14.30;7.85;;;9.80;99.90;;;10.05;55.99;102672.63;5074961;28;20036;-69
2021/04/02 08:34:29;;;;;;;14.68;6.43;;;9.90;99.90;;;10.03;55.97;102676.97;5075210;28;20110;-69
2021/04/02 08:37:00;;;;;;;17.58;7.07;;;9.80;99.90;;;10.11;55.69;102664.88;5075245;28;20059;-69
2021/04/02 08:39:28;;;;;;;;;;;9.90;99.90;;;10.10;55.74;102678.06;5075489;28;20501;-69
2021/04/02 08:42:01;;;;;;;16.35;7.47;;;9.90;99.90;;;10.09;56.12;102678.88;5074800;28;20377;-69
2021/04/02 08:44:34;;;;;;;15.35;6.30;;;9.90;99.90;;;10.17;55.63;102674.72;5073683;28;20044;-69
2021/04/02 08:47:03;;;;;;;23.73;7.65;;;9.90;99.90;;;10.15;55.89;102671.13;5075014;28;20048;-69
2021/04/02 08:49:38;;;;;;;16.83;7.13;;;10.00;99.90;;;10.16;56.19;102665.91;5074797;28;20040;-69
2021/04/02 08:52:09;;;;;;;19.60;8.18;;;9.90;99.90;;;10.19;56.07;102657.16;5074561;28;20301;-69
2021/04/02 08:54:37;;;;;;;20.95;7.82;;;10.00;99.90;;;10.30;56.28;102659.22;5074385;28;20049;-69
2021/04/02 08:57:07;;;;;;;24.20;7.97;;;10.10;99.90;;;10.29;56.11;102659.19;5074819;28;20040;-69
2021/04/02 08:59:35;;;;;;;22.30;8.68;;;10.10;99.90;;;10.33;56.10;102659.31;5074815;28;20050;-69
2021/04/02 09:02:04;;;;;;;19.40;7.38;;;10.10;99.90;;;10.45;55.96;102664.00;5074584;28;20086;-69
2021/04/02 09:04:33;;;;;;;17.42;7.30;;;10.20;99.90;;;10.50;55.61;102667.66;5074289;28;20037;-69
2021/04/02 09:07:02;;;;;;;19.85;7.72;;;10.30;99.90;;;10.53;55.56;102678.31;5074437;28;20040;-69
2021/04/02 09:09:33;;;;;;;14.13;6.78;;;10.30;99.90;;;10.55;55.54;102666.91;5074471;28;20040;-69
2021/04/02 09:12:09;;;;;;;13.50;6.13;;;10.40;99.90;;;9.78;55.06;102551.22;5074481;28;20044;-69
2021/04/02 09:14:43;;;;;;;16.15;6.65;;;10.30;99.90;;;10.61;54.81;102676.72;5073059;28;20045;-68
2021/04/02 09:17:19;;;;;;;15.88;6.65;;;10.40;99.90;;;10.63;54.74;102680.31;5074441;28;20446;-69
2021/04/02 09:19:50;;;;;;;12.15;6.70;;;10.50;99.90;;;10.66;54.72;102683.06;5074332;28;20494;-69
2021/04/02 09:22:19;;;;;;;17.65;6.88;;;10.50;99.90;;;10.63;55.06;102691.81;5089851;28;20055;-69
2021/04/02 09:24:46;;;;;;;23.10;8.23;;;10.40;99.90;;;10.71;54.84;102684.03;5073984;28;20209;-69
2021/04/02 09:27:18;;;;;;;17.67;7.28;;;10.40;99.90;;;10.75;54.67;102685.91;5073906;28;20504;-70
2021/04/02 09:29:46;;;;;;;14.80;6.25;;;10.50;99.90;;;10.53;54.16;102652.72;5073817;28;20040;-69
2021/04/02 09:32:14;;;;;;;13.23;6.28;;;10.50;99.90;;;10.65;54.34;102681.25;5072629;28;20446;-69
2021/04/02 09:34:42;;;;;;;13.88;6.65;;;10.40;99.90;;;10.61;54.19;102676.72;5074149;28;20048;-69
2021/04/02 09:37:10;;;;;;;16.02;6.78;;;10.40;99.90;;;10.57;54.29;102680.16;5089510;28;20103;-69
2021/04/02 09:39:38;;;;;;;19.90;7.15;;;10.40;99.90;;;10.63;54.75;102689.16;5073836;28;20401;-69
2021/04/02 09:42:06;;;;;;;20.50;6.85;;;10.40;99.90;;;10.46;54.43;102666.69;5073734;28;20518;-69
2021/04/02 09:44:38;;;;;;;18.05;7.18;;;10.30;99.90;;;10.51;54.93;102693.25;5073808;28;20049;-69
2021/04/02 09:47:09;;;;;;;17.45;6.57;;;10.30;99.90;;;10.58;54.49;102679.31;5072072;28;20052;-69
2021/04/02 09:49:37;;;;;;;19.40;7.30;;;10.40;99.90;;;10.61;54.74;102677.63;5089422;28;20052;-69
2021/04/02 09:52:07;;;;;;;17.90;7.53;;;10.40;99.90;;;10.50;54.58;102680.88;5073581;28;20094;-69
2021/04/02 09:54:37;;;;;;;22.30;6.40;;;10.30;99.90;;;10.43;55.21;102674.53;5073463;28;20045;-69
2021/04/02 09:57:07;;;;;;;19.37;6.93;;;10.30;99.90;;;10.50;55.06;102675.59;5073570;28;20052;-69
2021/04/02 09:59:36;;;;;;;15.20;6.13;;;10.30;99.90;;;10.59;55.88;102678.44;5073259;28;20048;-69
2021/04/02 10:02:05;;;;;;;16.50;6.30;;;10.30;99.90;;;10.72;55.47;102675.25;5073315;28;20811;-69
2021/04/02 10:04:33;;;;;;;15.25;6.30;;;10.40;99.90;;;10.47;55.18;102647.28;5072597;28;20389;-69
2021/04/02 10:07:01;;;;;;;14.80;5.45;;;10.50;99.90;;;10.76;55.03;102678.00;5072006;28;20127;-69
2021/04/02 10:09:29;;;;;;;15.00;6.03;;;10.50;99.90;;;10.71;54.68;102681.41;5073177;28;20409;-69
2021/04/02 10:11:56;;;;;;;17.80;6.40;;;10.50;99.90;;;10.69;54.76;102686.66;5073102;28;20044;-70
2021/04/02 10:14:24;;;;;;;20.92;6.93;;;10.50;99.90;;;10.75;54.42;102676.22;5073041;28;20037;-69
2021/04/02 10:16:52;;;;;;;16.90;6.97;;;10.60;99.90;;;10.69;54.52;102680.47;5072930;28;20072;-69
2021/04/02 10:19:20;;;;;;;14.95;6.13;;;10.50;99.90;;;10.80;54.68;102682.50;5073006;28;20063;-72
2021/04/02 10:21:47;;;;;;;21.67;6.22;;;10.60;99.90;;;10.78;54.51;102689.50;5073035;28;20040;-69
2021/04/02 10:24:15;;;;;;;18.13;7.07;;;10.60;99.90;;;10.80;54.30;102690.44;5072868;28;20071;-69
2021/04/02 10:26:43;;;;;;;14.95;7.18;;;10.60;99.90;;;10.92;54.72;102691.63;5073175;28;20048;-69
2021/04/02 10:29:10;;;;;;;21.42;7.75;;;10.60;99.90;;;10.82;54.60;102688.72;5072982;28;20048;-69
2021/04/02 10:31:39;;;;;;;19.17;7.85;;;10.60;99.90;;;10.64;54.63;102647.72;5072480;28;20074;-69